Luray, Indiana
Current Conditions -  °F | °C
As of 3:53 PM on Friday 28 Nov 2014 (Local Time) from KMIE Reporting Station
Clear Clear  
Wind Chill: 22°   Ceiling: Unl
Heat Index: 32°   Visibility: 10mi
Dew Point: 17°   Wind: 14mph
Humidity: 54%   Direction: 180°S
Pressure: 30.14"   Gusts: NA
Location:  40.0191°N, 85.354°W
Report Text: KMIE 282053Z 18012KT 10SM CLR 00/M08 A3014 RMK AO2 SLP214 T00001083 58030
Loading
Personal Weather Stations






























Interactive Weather Map New forecast layout! Learn more

10-Day Weather Forecast

Advertisements
Track Severe Weather on mobile